createdAt,value
2023-02-25T00:01:29.059Z,8.93
2023-02-25T00:03:57.215Z,6.35
2023-02-25T00:06:25.911Z,6.07
2023-02-25T00:08:54.695Z,7.30
2023-02-25T00:11:23.902Z,6.25
2023-02-25T00:13:51.783Z,7.22
2023-02-25T00:16:21.339Z,7.53
2023-02-25T00:18:54.339Z,7.57
2023-02-25T00:21:22.563Z,6.13
2023-02-25T00:23:51.508Z,7.50
2023-02-25T00:26:19.535Z,6.47
2023-02-25T00:28:48.684Z,7.47
2023-02-25T00:31:21.770Z,8.10
2023-02-25T00:33:50.482Z,7.13
2023-02-25T00:36:22.299Z,8.50
2023-02-25T00:38:55.800Z,5.05
2023-02-25T00:41:28.929Z,8.45
2023-02-25T00:44:00.536Z,6.10
2023-02-25T00:46:30.440Z,6.25
2023-02-25T00:48:59.258Z,11.13
2023-02-25T00:51:30.035Z,7.68
2023-02-25T00:53:57.855Z,6.28
2023-02-25T00:56:26.726Z,7.82
2023-02-25T00:58:54.972Z,7.00
2023-02-25T01:01:31.344Z,7.40
2023-02-25T01:04:00.096Z,6.90
2023-02-25T01:06:29.343Z,5.00
2023-02-25T01:08:59.975Z,9.63
2023-02-25T01:11:33.382Z,8.00
2023-02-25T01:14:07.138Z,6.97
2023-02-25T01:19:09.320Z,6.75
2023-02-25T01:21:40.781Z,7.93
2023-02-25T01:24:18.454Z,3.42
2023-02-25T01:26:47.536Z,7.15
2023-02-25T01:29:18.020Z,7.47
2023-02-25T01:31:46.692Z,8.93
2023-02-25T01:34:16.988Z,6.75
2023-02-25T01:36:45.789Z,8.77
2023-02-25T01:39:16.547Z,7.28
2023-02-25T01:41:51.303Z,6.65
2023-02-25T01:44:21.687Z,5.97
2023-02-25T01:46:51.471Z,8.05
2023-02-25T01:49:44.334Z,5.80
2023-02-25T01:54:56.485Z,9.23
2023-02-25T01:57:25.256Z,7.25
2023-02-25T01:59:55.187Z,7.78
2023-02-25T02:02:26.596Z,8.05
2023-02-25T02:04:55.136Z,8.32
2023-02-25T02:07:25.048Z,8.25
2023-02-25T02:09:58.856Z,6.85
2023-02-25T02:12:31.930Z,6.45
2023-02-25T02:15:04.975Z,7.20
2023-02-25T02:17:51.457Z,6.93
2023-02-25T02:20:27.554Z,7.15
2023-02-25T02:23:34.294Z,7.80
2023-02-25T02:26:15.104Z,5.80
2023-02-25T02:29:27.564Z,9.93
2023-02-25T02:32:19.768Z,8.63
2023-02-25T02:35:15.888Z,8.30
2023-02-25T02:37:53.184Z,7.32
2023-02-25T02:40:26.718Z,8.43
2023-02-25T02:43:07.847Z,7.90
2023-02-25T02:45:49.953Z,9.32
2023-02-25T02:48:34.380Z,10.05
2023-02-25T02:51:05.481Z,6.00
2023-02-25T02:53:38.456Z,6.60
2023-02-25T02:56:09.583Z,7.97
2023-02-25T02:58:58.032Z,6.18
2023-02-25T03:01:35.295Z,7.93
2023-02-25T03:04:06.497Z,7.47
2023-02-25T03:06:40.030Z,6.82
2023-02-25T03:09:15.622Z,5.57
2023-02-25T03:11:46.504Z,6.47
2023-02-25T03:14:15.260Z,4.32
2023-02-25T03:16:53.375Z,9.00
2023-02-25T03:19:28.965Z,7.32
2023-02-25T03:22:05.127Z,3.55
2023-02-25T03:24:39.854Z,7.05
2023-02-25T03:27:44.388Z,6.45
2023-02-25T03:30:38.066Z,5.57
2023-02-25T03:33:05.632Z,9.02
2023-02-25T03:35:35.744Z,9.55
2023-02-25T03:38:08.945Z,7.80
2023-02-25T03:40:38.846Z,6.40
2023-02-25T03:43:16.546Z,9.95
2023-02-25T03:45:45.637Z,10.45
2023-02-25T03:48:17.393Z,10.13
2023-02-25T03:50:49.132Z,10.57
2023-02-25T03:53:17.005Z,9.20
2023-02-25T03:55:54.558Z,8.32
2023-02-25T03:58:22.524Z,7.60
2023-02-25T04:00:55.150Z,9.35
2023-02-25T04:03:25.573Z,11.77
2023-02-25T04:05:54.982Z,14.00
2023-02-25T04:08:23.090Z,14.35
2023-02-25T04:10:51.659Z,14.05
2023-02-25T04:13:21.281Z,12.05
2023-02-25T04:15:50.429Z,8.60
2023-02-25T04:18:18.147Z,12.70
2023-02-25T04:20:48.245Z,12.77
2023-02-25T04:23:17.040Z,11.02
2023-02-25T04:25:44.719Z,9.63
2023-02-25T04:28:12.539Z,10.88
2023-02-25T04:30:40.302Z,11.90
2023-02-25T04:33:08.299Z,13.52
2023-02-25T04:35:37.854Z,12.50
2023-02-25T04:38:08.075Z,12.60
2023-02-25T04:40:37.178Z,11.60
2023-02-25T04:43:04.980Z,9.65
2023-02-25T04:45:33.006Z,9.20
2023-02-25T04:48:00.819Z,9.15
2023-02-25T04:50:30.208Z,9.00
2023-02-25T04:53:02.606Z,10.57
2023-02-25T04:55:31.776Z,9.13
2023-02-25T04:58:00.871Z,9.07
2023-02-25T05:00:28.586Z,10.63
2023-02-25T05:02:57.105Z,8.73
2023-02-25T05:05:24.643Z,11.48
2023-02-25T05:07:52.693Z,9.20
2023-02-25T05:10:20.631Z,7.25
2023-02-25T05:12:48.606Z,9.57
2023-02-25T05:15:16.737Z,10.23
2023-02-25T05:17:44.497Z,9.85
2023-02-25T05:20:14.075Z,9.70
2023-02-25T05:22:42.918Z,10.30
2023-02-25T05:25:12.924Z,10.82
2023-02-25T05:27:44.477Z,12.90
2023-02-25T05:30:16.336Z,10.70
2023-02-25T05:32:45.139Z,9.73
2023-02-25T05:35:13.579Z,11.30
2023-02-25T05:37:41.328Z,11.48
2023-02-25T05:40:10.159Z,12.10
2023-02-25T05:42:38.634Z,24.60
2023-02-25T05:45:09.390Z,11.77
2023-02-25T05:47:36.967Z,12.95
2023-02-25T05:50:04.895Z,11.88
2023-02-25T05:52:32.626Z,11.95
2023-02-25T05:55:00.219Z,13.40
2023-02-25T05:57:27.686Z,10.30
2023-02-25T05:59:55.168Z,11.80
2023-02-25T06:02:22.809Z,12.55
2023-02-25T06:04:53.901Z,9.82
2023-02-25T06:07:21.628Z,10.70
2023-02-25T06:09:49.129Z,10.95
2023-02-25T06:12:16.774Z,10.10
2023-02-25T06:14:44.184Z,8.68
2023-02-25T06:17:12.262Z,8.52
2023-02-25T06:19:39.714Z,10.05
2023-02-25T06:22:07.420Z,8.85
2023-02-25T06:24:34.940Z,9.27
2023-02-25T06:27:02.618Z,7.55
2023-02-25T06:29:30.265Z,9.90
2023-02-25T06:31:57.933Z,10.27
2023-02-25T06:34:25.697Z,8.25
2023-02-25T06:36:53.248Z,10.43
2023-02-25T06:39:20.838Z,10.88
2023-02-25T06:41:49.798Z,9.05
2023-02-25T06:44:17.267Z,11.90
2023-02-25T06:46:44.961Z,5.15
2023-02-25T06:49:13.077Z,9.88
2023-02-25T06:51:40.566Z,7.72
2023-02-25T06:54:08.200Z,10.02
2023-02-25T06:56:35.743Z,10.73
2023-02-25T06:59:03.317Z,14.07
2023-02-25T07:01:31.296Z,12.55
2023-02-25T07:03:58.842Z,11.05
2023-02-25T07:06:26.624Z,10.27
2023-02-25T07:08:54.346Z,13.10
2023-02-25T07:11:25.238Z,11.52
2023-02-25T07:13:53.043Z,11.35
2023-02-25T07:16:21.265Z,7.35
2023-02-25T07:18:49.128Z,13.48
2023-02-25T07:21:16.852Z,9.82
2023-02-25T07:23:44.672Z,9.52
2023-02-25T07:26:14.218Z,12.65
2023-02-25T07:28:43.900Z,10.75
2023-02-25T07:31:17.646Z,9.73
2023-02-25T07:33:46.378Z,11.10
2023-02-25T07:36:15.306Z,13.43
2023-02-25T07:38:43.409Z,12.73
2023-02-25T07:41:15.691Z,11.95
2023-02-25T07:43:46.200Z,10.38
2023-02-25T07:46:16.894Z,10.35
2023-02-25T07:48:54.883Z,12.45
2023-02-25T07:51:25.654Z,13.00
2023-02-25T07:56:39.647Z,11.38
2023-02-25T07:59:13.725Z,8.52
2023-02-25T08:01:45.551Z,13.10
2023-02-25T08:06:47.770Z,10.02
2023-02-25T08:09:16.568Z,8.48
2023-02-25T08:11:48.636Z,4.93
2023-02-25T08:14:18.883Z,11.65
2023-02-25T08:16:47.379Z,10.30
2023-02-25T08:19:16.867Z,11.20
2023-02-25T08:21:45.126Z,8.07
2023-02-25T08:24:17.212Z,12.60
2023-02-25T08:26:45.865Z,10.77
2023-02-25T08:29:19.822Z,6.82
2023-02-25T08:31:49.524Z,10.38
2023-02-25T08:34:17.144Z,9.90
2023-02-25T08:36:45.377Z,10.38
2023-02-25T08:39:15.979Z,16.92
2023-02-25T08:41:44.787Z,11.00
2023-02-25T08:44:12.909Z,8.57
2023-02-25T08:46:41.962Z,11.88
2023-02-25T08:49:10.839Z,7.88
2023-02-25T08:51:42.469Z,5.93
2023-02-25T08:54:14.845Z,8.93
2023-02-25T08:56:45.355Z,8.23
2023-02-25T08:59:15.914Z,8.18
2023-02-25T09:01:47.617Z,3.17
2023-02-25T09:04:24.880Z,8.85
2023-02-25T09:06:54.613Z,9.10
2023-02-25T09:09:22.946Z,5.13
2023-02-25T09:11:51.145Z,6.22
2023-02-25T09:14:19.917Z,5.85
2023-02-25T09:16:47.856Z,4.22
2023-02-25T09:19:18.246Z,5.65
2023-02-25T09:21:50.626Z,8.05
2023-02-25T09:24:18.571Z,5.28
2023-02-25T09:26:47.040Z,7.35
2023-02-25T09:29:14.691Z,7.63
2023-02-25T09:31:42.495Z,8.65
2023-02-25T09:34:15.617Z,4.50
2023-02-25T09:36:43.503Z,3.38
2023-02-25T09:39:13.264Z,9.48
2023-02-25T09:42:01.499Z,10.80
2023-02-25T09:44:39.722Z,7.72
2023-02-25T09:47:13.529Z,3.75
2023-02-25T09:52:55.676Z,9.88
2023-02-25T09:55:41.708Z,7.18
2023-02-25T09:58:12.088Z,8.80
2023-02-25T10:00:59.960Z,10.13
2023-02-25T10:03:36.619Z,6.90
2023-02-25T10:06:39.312Z,6.78
2023-02-25T10:09:28.575Z,3.55
2023-02-25T10:12:14.389Z,6.53
2023-02-25T10:15:15.071Z,6.78
2023-02-25T10:17:51.448Z,6.55
2023-02-25T10:20:35.503Z,6.75
2023-02-25T10:23:08.349Z,5.75
2023-02-25T10:25:43.391Z,3.55
2023-02-25T10:28:17.851Z,7.63
2023-02-25T10:31:15.682Z,6.22
2023-02-25T10:33:46.994Z,2.05
2023-02-25T10:36:28.430Z,4.47
2023-02-25T10:38:56.395Z,4.68
2023-02-25T10:41:29.140Z,6.97
2023-02-25T10:43:57.106Z,4.78
2023-02-25T10:46:34.973Z,8.27
2023-02-25T10:49:16.294Z,7.22
2023-02-25T10:52:10.683Z,5.18
2023-02-25T10:54:52.931Z,7.32
2023-02-25T10:57:40.342Z,7.95
2023-02-25T11:00:29.869Z,5.28
2023-02-25T11:03:01.721Z,3.30
2023-02-25T11:05:41.071Z,2.97
2023-02-25T11:08:29.045Z,4.65
2023-02-25T11:11:26.035Z,3.55
2023-02-25T11:14:15.591Z,2.78
2023-02-25T11:16:46.194Z,2.95
2023-02-25T11:19:23.831Z,5.85
2023-02-25T11:21:52.737Z,6.30
2023-02-25T11:24:33.919Z,6.57
2023-02-25T11:27:04.545Z,5.07
2023-02-25T11:29:40.117Z,5.93
2023-02-25T11:32:12.631Z,4.75
2023-02-25T11:34:51.711Z,7.78
2023-02-25T11:37:43.139Z,9.18
2023-02-25T11:40:34.476Z,7.88
2023-02-25T11:43:19.138Z,9.20
2023-02-25T11:46:00.770Z,7.47
2023-02-25T11:48:31.449Z,8.77
2023-02-25T11:51:17.186Z,10.10
2023-02-25T11:54:04.895Z,9.25
2023-02-25T11:56:58.054Z,7.53
2023-02-25T11:59:40.152Z,12.10
2023-02-25T12:02:29.112Z,9.05
2023-02-25T12:05:15.631Z,7.95
2023-02-25T12:08:17.206Z,9.23
2023-02-25T12:14:03.474Z,7.78
2023-02-25T12:17:06.295Z,9.73
2023-02-25T12:19:34.246Z,9.55
2023-02-25T12:22:37.138Z,11.93
2023-02-25T12:25:28.628Z,10.65
2023-02-25T12:28:24.971Z,9.20
2023-02-25T12:31:12.710Z,9.68
2023-02-25T12:33:46.135Z,9.55
2023-02-25T12:36:28.616Z,10.95
2023-02-25T12:39:09.487Z,11.03
2023-02-25T12:41:48.544Z,8.10
2023-02-25T12:44:57.160Z,10.80
2023-02-25T12:47:46.538Z,8.85
2023-02-25T12:50:41.605Z,8.50
2023-02-25T12:53:18.017Z,11.30
2023-02-25T12:56:22.753Z,10.07
2023-02-25T12:59:14.993Z,6.40
2023-02-25T13:02:17.231Z,8.27
2023-02-25T13:04:52.072Z,8.05
2023-02-25T13:07:29.756Z,7.28
2023-02-25T13:10:03.507Z,10.00
2023-02-25T13:12:41.291Z,9.50
2023-02-25T13:15:22.170Z,8.73
2023-02-25T13:18:17.446Z,9.52
2023-02-25T13:21:06.404Z,10.18
2023-02-25T13:23:54.934Z,9.27
2023-02-25T13:26:41.309Z,7.20
2023-02-25T13:29:47.971Z,7.22
2023-02-25T13:32:46.548Z,7.03
2023-02-25T13:35:29.519Z,13.15
2023-02-25T13:38:09.308Z,7.05
2023-02-25T13:40:57.036Z,10.43
2023-02-25T13:43:55.537Z,8.15
2023-02-25T13:46:53.908Z,7.00
2023-02-25T13:49:31.411Z,9.45
2023-02-25T13:52:24.801Z,8.23
2023-02-25T13:54:56.705Z,8.57
2023-02-25T13:58:03.513Z,7.45
2023-02-25T14:01:00.418Z,6.65
2023-02-25T14:04:05.414Z,6.43
2023-02-25T14:07:00.255Z,7.35
2023-02-25T14:09:27.898Z,6.85
2023-02-25T14:12:19.958Z,10.35
2023-02-25T14:15:21.956Z,7.53
2023-02-25T14:18:21.677Z,9.15
2023-02-25T14:20:55.200Z,8.20
2023-02-25T14:23:30.956Z,6.85
2023-02-25T14:26:20.604Z,8.20
2023-02-25T14:28:55.918Z,7.90
2023-02-25T14:31:46.316Z,6.55
2023-02-25T14:34:41.786Z,9.93
2023-02-25T14:37:31.133Z,10.40
2023-02-25T14:40:15.964Z,7.85
2023-02-25T14:42:54.224Z,12.60
2023-02-25T14:45:38.725Z,10.20
2023-02-25T14:48:19.423Z,9.70
2023-02-25T14:51:02.424Z,8.98
2023-02-25T14:53:53.050Z,10.13
2023-02-25T14:56:29.616Z,7.43
2023-02-25T14:58:59.997Z,8.88
2023-02-25T15:01:44.944Z,8.35
2023-02-25T15:04:38.383Z,8.40
2023-02-25T15:07:15.185Z,8.13
2023-02-25T15:10:10.800Z,7.85
2023-02-25T15:13:06.054Z,6.05
2023-02-25T15:15:47.050Z,7.45
2023-02-25T15:18:45.368Z,13.18
2023-02-25T15:21:46.908Z,8.63
2023-02-25T15:24:23.847Z,9.03
2023-02-25T15:26:52.313Z,5.32
2023-02-25T15:29:28.945Z,10.00
2023-02-25T15:32:25.328Z,10.90
2023-02-25T15:35:14.338Z,8.98
2023-02-25T15:38:15.064Z,8.63
2023-02-25T15:40:55.904Z,9.40
2023-02-25T15:43:43.032Z,10.02
2023-02-25T15:46:10.609Z,13.23
2023-02-25T15:48:40.176Z,9.85
2023-02-25T15:51:32.138Z,9.10
2023-02-25T15:54:00.138Z,9.27
2023-02-25T15:56:46.178Z,8.35
2023-02-25T15:59:42.566Z,10.98
2023-02-25T16:02:34.042Z,8.27
2023-02-25T16:05:06.237Z,9.40
2023-02-25T16:07:50.078Z,9.60
2023-02-25T16:10:42.544Z,10.77
2023-02-25T16:13:27.012Z,9.02
2023-02-25T16:16:00.084Z,11.35
2023-02-25T16:18:48.112Z,9.20
2023-02-25T16:21:19.963Z,8.38
2023-02-25T16:23:47.756Z,7.55
2023-02-25T16:26:40.503Z,7.28
2023-02-25T16:29:35.953Z,8.77
2023-02-25T16:32:18.799Z,9.48
2023-02-25T16:35:10.182Z,9.65
2023-02-25T16:41:15.219Z,8.10
2023-02-25T16:43:45.017Z,7.55
2023-02-25T16:46:17.796Z,7.63
2023-02-25T16:48:52.719Z,7.75
2023-02-25T16:51:32.298Z,10.45
2023-02-25T16:54:22.840Z,8.85
2023-02-25T16:56:55.493Z,8.77
2023-02-25T16:59:24.481Z,6.43
2023-02-25T17:01:59.149Z,8.13
2023-02-25T17:04:35.679Z,10.00
2023-02-25T17:07:17.278Z,9.68
2023-02-25T17:09:50.725Z,11.20
2023-02-25T17:12:37.835Z,9.23
2023-02-25T17:15:14.807Z,7.68
2023-02-25T17:17:44.809Z,7.50
2023-02-25T17:20:25.051Z,8.73
2023-02-25T17:22:53.050Z,9.45
2023-02-25T17:25:24.492Z,10.90
2023-02-25T17:27:52.121Z,10.45
2023-02-25T17:30:40.237Z,10.45
2023-02-25T17:33:26.762Z,11.25
2023-02-25T17:35:59.722Z,9.45
2023-02-25T17:38:29.538Z,9.10
2023-02-25T17:40:57.532Z,9.25
2023-02-25T17:43:33.474Z,9.55
2023-02-25T17:46:24.542Z,8.23
2023-02-25T17:48:56.155Z,9.15
2023-02-25T17:51:39.076Z,7.05
2023-02-25T17:54:09.768Z,9.77
2023-02-25T17:56:38.309Z,8.95
2023-02-25T17:59:28.799Z,8.73
2023-02-25T18:02:01.337Z,9.32
2023-02-25T18:04:36.495Z,8.70
2023-02-25T18:07:47.881Z,13.15
2023-02-25T18:10:48.798Z,13.90
2023-02-25T18:13:21.691Z,12.32
2023-02-25T18:16:09.538Z,11.80
2023-02-25T18:18:37.269Z,8.57
2023-02-25T18:21:12.011Z,12.70
2023-02-25T18:23:41.060Z,11.30
2023-02-25T18:26:21.091Z,11.82
2023-02-25T18:28:48.793Z,9.85
2023-02-25T18:31:18.566Z,10.65
2023-02-25T18:33:50.127Z,10.65
2023-02-25T18:36:24.467Z,13.38
2023-02-25T18:38:55.871Z,10.55
2023-02-25T18:41:23.536Z,10.20
2023-02-25T18:43:52.237Z,9.05
2023-02-25T18:46:19.899Z,8.35
2023-02-25T18:48:47.530Z,8.68
2023-02-25T18:51:15.495Z,8.90
2023-02-25T18:53:43.069Z,9.38
2023-02-25T18:56:16.955Z,12.90
2023-02-25T19:01:24.268Z,11.25
2023-02-25T19:03:52.307Z,18.58
2023-02-25T19:06:20.046Z,17.23
2023-02-25T19:08:47.805Z,16.05
2023-02-25T19:11:30.252Z,15.93
2023-02-25T19:13:58.042Z,10.47
2023-02-25T19:16:25.907Z,13.93
2023-02-25T19:18:53.809Z,28.17
2023-02-25T19:21:22.038Z,16.02
2023-02-25T19:23:54.083Z,14.88
2023-02-25T19:26:22.345Z,11.40
2023-02-25T19:28:50.013Z,10.65
2023-02-25T19:31:18.211Z,9.02
2023-02-25T19:33:46.168Z,19.08
2023-02-25T19:36:13.782Z,16.30
2023-02-25T19:38:41.484Z,35.17
2023-02-25T19:41:10.072Z,36.22
2023-02-25T19:43:37.565Z,21.65
2023-02-25T19:46:08.738Z,26.50
2023-02-25T19:48:36.821Z,21.35
2023-02-25T19:51:08.590Z,37.45
2023-02-25T19:53:38.110Z,27.73
2023-02-25T19:56:08.237Z,24.70
2023-02-25T19:58:35.885Z,21.30
2023-02-25T20:01:09.110Z,13.85
2023-02-25T20:03:37.063Z,12.10
2023-02-25T20:06:07.268Z,13.30
2023-02-25T20:08:37.153Z,12.07
2023-02-25T20:11:10.212Z,15.18
2023-02-25T20:13:38.892Z,12.75
2023-02-25T20:16:06.904Z,12.80
2023-02-25T20:18:34.702Z,13.95
2023-02-25T20:21:02.224Z,12.07
2023-02-25T20:23:31.043Z,13.88
2023-02-25T20:26:10.910Z,13.25
2023-02-25T20:28:39.654Z,13.00
2023-02-25T20:31:11.671Z,12.00
2023-02-25T20:33:39.806Z,12.35
2023-02-25T20:36:42.613Z,11.35
2023-02-25T20:39:16.314Z,11.45
2023-02-25T20:41:45.830Z,11.38
2023-02-25T20:44:14.147Z,13.75
2023-02-25T20:46:43.029Z,14.25
2023-02-25T20:49:20.060Z,9.93
2023-02-25T20:51:48.705Z,13.02
2023-02-25T20:54:18.380Z,14.55
2023-02-25T20:56:46.045Z,17.48
2023-02-25T20:59:14.753Z,16.08
2023-02-25T21:01:42.861Z,16.45
2023-02-25T21:04:10.825Z,13.90
2023-02-25T21:06:38.820Z,18.20
2023-02-25T21:09:07.526Z,16.33
2023-02-25T21:11:35.729Z,18.17
2023-02-25T21:14:03.542Z,16.98
2023-02-25T21:16:32.715Z,19.08
2023-02-25T21:19:01.482Z,17.92
2023-02-25T21:21:31.958Z,17.33
2023-02-25T21:23:59.470Z,19.08
2023-02-25T21:26:27.026Z,16.00
2023-02-25T21:28:54.560Z,14.20
2023-02-25T21:31:22.209Z,16.60
2023-02-25T21:33:49.800Z,16.63
2023-02-25T21:36:17.592Z,11.27
2023-02-25T21:38:45.219Z,15.38
2023-02-25T21:41:14.811Z,14.63
2023-02-25T21:43:42.966Z,13.93
2023-02-25T21:46:13.858Z,14.82
2023-02-25T21:48:42.317Z,16.25
2023-02-25T21:51:19.316Z,16.50
2023-02-25T21:53:47.011Z,15.05
2023-02-25T21:56:17.234Z,13.85
2023-02-25T21:58:45.357Z,16.92
2023-02-25T22:01:20.503Z,13.40
2023-02-25T22:03:48.557Z,14.85
2023-02-25T22:06:16.844Z,12.80
2023-02-25T22:08:46.125Z,15.82
2023-02-25T22:11:19.463Z,18.13
2023-02-25T22:13:48.957Z,14.10
2023-02-25T22:16:17.234Z,15.30
2023-02-25T22:18:45.299Z,15.40
2023-02-25T22:21:15.887Z,15.10
2023-02-25T22:23:44.259Z,13.48
2023-02-25T22:26:15.249Z,15.57
2023-02-25T22:28:43.955Z,14.95
2023-02-25T22:31:14.228Z,13.27
2023-02-25T22:33:42.235Z,14.65
2023-02-25T22:36:11.456Z,14.52
2023-02-25T22:38:41.785Z,14.52
2023-02-25T22:41:29.736Z,16.75
2023-02-25T22:44:00.840Z,12.43
2023-02-25T22:46:31.042Z,14.38
2023-02-25T22:48:59.378Z,13.05
2023-02-25T22:51:33.204Z,16.00
2023-02-25T22:56:28.721Z,8.00
2023-02-25T22:58:56.585Z,15.77
2023-02-25T23:01:25.591Z,10.52
2023-02-25T23:03:54.671Z,13.73
2023-02-25T23:06:34.110Z,15.20
2023-02-25T23:09:09.967Z,13.10
2023-02-25T23:11:39.957Z,13.18
2023-02-25T23:14:07.524Z,16.92
2023-02-25T23:16:40.638Z,16.40
2023-02-25T23:19:10.745Z,14.65
2023-02-25T23:21:41.488Z,15.63
2023-02-25T23:24:09.971Z,17.92
2023-02-25T23:26:40.825Z,15.35
2023-02-25T23:29:10.828Z,19.05
2023-02-25T23:31:43.137Z,15.95
2023-02-25T23:34:13.791Z,15.93
2023-02-25T23:36:43.724Z,14.23
2023-02-25T23:39:14.059Z,14.32
2023-02-25T23:41:42.462Z,14.55
2023-02-25T23:44:12.042Z,16.35
2023-02-25T23:46:40.152Z,12.50
2023-02-25T23:49:07.972Z,8.23
2023-02-25T23:51:36.664Z,18.50
2023-02-25T23:54:06.446Z,13.98
2023-02-25T23:56:35.673Z,13.00
2023-02-25T23:59:03.205Z,11.68
